createdAt,value
2022-10-17T00:01:10.652Z,8.29
2022-10-17T00:03:40.184Z,7.75
2022-10-17T00:06:10.445Z,7.93
2022-10-17T00:08:39.434Z,7.85
2022-10-17T00:11:09.731Z,8.01
2022-10-17T00:13:38.220Z,7.82
2022-10-17T00:16:07.396Z,7.90
2022-10-17T00:18:37.241Z,7.97
2022-10-17T00:21:05.544Z,7.79
2022-10-17T00:23:35.123Z,7.76
2022-10-17T00:26:05.219Z,7.94
2022-10-17T00:28:33.957Z,7.89
2022-10-17T00:31:03.629Z,7.60
2022-10-17T00:33:32.944Z,7.56
2022-10-17T00:36:08.137Z,7.62
2022-10-17T00:38:36.907Z,7.69
2022-10-17T00:41:05.534Z,7.56
2022-10-17T00:43:55.740Z,7.58
2022-10-17T00:46:26.648Z,7.46
2022-10-17T00:48:56.518Z,7.60
2022-10-17T00:51:32.332Z,7.71
2022-10-17T00:54:01.993Z,7.83
2022-10-17T00:56:31.385Z,7.53
2022-10-17T00:58:59.598Z,7.43
2022-10-17T01:01:27.772Z,7.32
2022-10-17T01:03:56.012Z,7.51
2022-10-17T01:06:25.402Z,7.49
2022-10-17T01:08:54.097Z,7.62
2022-10-17T01:11:34.235Z,7.61
2022-10-17T01:14:07.621Z,7.47
2022-10-17T01:16:43.612Z,7.33
2022-10-17T01:19:31.889Z,7.28
2022-10-17T01:22:04.565Z,6.92
2022-10-17T01:25:16.133Z,7.05
2022-10-17T01:27:57.905Z,6.68
2022-10-17T01:30:52.908Z,6.69
2022-10-17T01:33:31.821Z,6.70
2022-10-17T01:36:07.106Z,7.11
2022-10-17T01:38:39.012Z,7.02
2022-10-17T01:41:14.866Z,7.17
2022-10-17T01:43:51.166Z,7.02
2022-10-17T01:46:26.678Z,6.85
2022-10-17T01:48:57.298Z,7.04
2022-10-17T01:51:32.573Z,7.26
2022-10-17T01:54:05.771Z,7.17
2022-10-17T01:56:37.638Z,7.12
2022-10-17T01:59:12.867Z,6.90
2022-10-17T02:01:45.615Z,5.97
2022-10-17T02:04:13.945Z,6.63
2022-10-17T02:06:42.094Z,6.99
2022-10-17T02:09:19.792Z,7.04
2022-10-17T02:11:59.853Z,6.89
2022-10-17T02:14:37.407Z,6.92
2022-10-17T02:17:15.310Z,6.80
2022-10-17T02:19:52.740Z,6.38
2022-10-17T02:22:32.104Z,6.49
2022-10-17T02:25:04.252Z,6.73
2022-10-17T02:27:42.556Z,6.61
2022-10-17T02:30:17.623Z,6.75
2022-10-17T02:32:54.432Z,6.87
2022-10-17T02:35:26.706Z,7.08
2022-10-17T02:37:56.739Z,6.83
2022-10-17T02:40:28.148Z,6.69
2022-10-17T02:42:58.081Z,6.77
2022-10-17T02:45:29.091Z,6.67
2022-10-17T02:48:04.800Z,6.53
2022-10-17T02:50:44.814Z,6.37
2022-10-17T02:53:17.153Z,6.19
2022-10-17T02:55:49.740Z,6.16
2022-10-17T02:58:22.773Z,6.29
2022-10-17T03:00:52.735Z,6.34
2022-10-17T03:03:24.745Z,6.14
2022-10-17T03:05:53.404Z,6.22
2022-10-17T03:08:22.305Z,6.44
2022-10-17T03:10:51.173Z,6.25
2022-10-17T03:13:19.648Z,6.29
2022-10-17T03:15:48.578Z,6.21
2022-10-17T03:18:16.686Z,6.39
2022-10-17T03:20:46.515Z,6.36
2022-10-17T03:23:14.796Z,6.35
2022-10-17T03:25:43.462Z,6.48
2022-10-17T03:28:13.199Z,6.57
2022-10-17T03:30:41.483Z,6.51
2022-10-17T03:33:09.629Z,6.50
2022-10-17T03:35:41.101Z,6.49
2022-10-17T03:38:10.483Z,6.47
2022-10-17T03:40:38.508Z,6.47
2022-10-17T03:43:06.978Z,6.41
2022-10-17T03:45:35.477Z,6.35
2022-10-17T03:48:03.478Z,6.30
2022-10-17T03:50:31.476Z,6.16
2022-10-17T03:52:59.713Z,6.28
2022-10-17T03:55:29.246Z,6.13
2022-10-17T03:57:57.387Z,6.07
2022-10-17T04:00:25.550Z,6.08
2022-10-17T04:02:54.397Z,6.25
2022-10-17T04:05:22.624Z,6.23
2022-10-17T04:07:51.128Z,6.38
2022-10-17T04:10:19.244Z,6.05
2022-10-17T04:12:48.971Z,6.20
2022-10-17T04:15:16.967Z,6.24
2022-10-17T04:17:45.807Z,6.23
2022-10-17T04:20:14.925Z,6.28
2022-10-17T04:22:42.997Z,6.26
2022-10-17T04:25:11.069Z,6.41
2022-10-17T04:27:39.316Z,6.25
2022-10-17T04:30:10.559Z,6.25
2022-10-17T04:32:40.179Z,6.28
2022-10-17T04:35:09.041Z,6.45
2022-10-17T04:37:37.041Z,6.52
2022-10-17T04:40:05.758Z,6.44
2022-10-17T04:42:33.928Z,6.31
2022-10-17T04:45:01.874Z,6.28
2022-10-17T04:47:31.730Z,6.25
2022-10-17T04:49:59.692Z,6.16
2022-10-17T04:52:28.000Z,6.28
2022-10-17T04:54:56.474Z,6.48
2022-10-17T04:57:24.965Z,6.40
2022-10-17T04:59:53.044Z,6.30
2022-10-17T05:02:21.096Z,6.28
2022-10-17T05:04:50.536Z,6.20
2022-10-17T05:07:18.510Z,6.27
2022-10-17T05:09:46.568Z,6.43
2022-10-17T05:12:14.605Z,6.23
2022-10-17T05:14:42.656Z,6.46
2022-10-17T05:17:10.653Z,6.21
2022-10-17T05:19:38.829Z,6.36
2022-10-17T05:22:08.503Z,6.39
2022-10-17T05:24:36.545Z,6.20
2022-10-17T05:27:04.647Z,6.09
2022-10-17T05:29:32.645Z,6.47
2022-10-17T05:34:35.230Z,6.55
2022-10-17T05:37:03.361Z,6.45
2022-10-17T05:39:32.718Z,6.51
2022-10-17T05:42:00.721Z,6.50
2022-10-17T05:44:28.837Z,6.72
2022-10-17T05:46:57.088Z,6.82
2022-10-17T05:49:33.350Z,6.56
2022-10-17T05:52:12.063Z,6.79
2022-10-17T05:54:41.418Z,6.77
2022-10-17T05:57:09.552Z,6.89
2022-10-17T05:59:37.618Z,6.99
2022-10-17T06:02:05.797Z,6.79
2022-10-17T06:04:34.398Z,6.89
2022-10-17T06:07:02.458Z,7.02
2022-10-17T06:09:30.560Z,7.19
2022-10-17T06:12:00.593Z,7.41
2022-10-17T06:14:28.574Z,7.43
2022-10-17T06:16:56.543Z,7.69
2022-10-17T06:19:24.602Z,7.48
2022-10-17T06:21:52.512Z,7.52
2022-10-17T06:24:20.531Z,7.60
2022-10-17T06:26:50.016Z,7.61
2022-10-17T06:29:19.318Z,7.87
2022-10-17T06:31:47.389Z,8.01
2022-10-17T06:34:15.436Z,8.19
2022-10-17T06:36:43.990Z,8.21
2022-10-17T06:39:11.949Z,8.26
2022-10-17T06:41:41.202Z,8.44
2022-10-17T06:44:11.415Z,8.52
2022-10-17T06:46:42.218Z,8.50
2022-10-17T06:49:11.686Z,8.31
2022-10-17T06:51:40.581Z,8.60
2022-10-17T06:54:08.844Z,8.65
2022-10-17T06:56:36.885Z,8.73
2022-10-17T06:59:05.330Z,8.79
2022-10-17T07:01:34.358Z,8.96
2022-10-17T07:04:04.364Z,9.04
2022-10-17T07:06:32.917Z,9.36
2022-10-17T07:09:02.949Z,9.35
2022-10-17T07:11:31.255Z,9.29
2022-10-17T07:13:59.652Z,9.32
2022-10-17T07:16:27.854Z,9.41
2022-10-17T07:18:56.970Z,9.39
2022-10-17T07:21:26.672Z,9.57
2022-10-17T07:23:54.908Z,9.62
2022-10-17T07:26:23.797Z,9.86
2022-10-17T07:28:56.350Z,9.87
2022-10-17T07:31:24.864Z,9.86
2022-10-17T07:33:53.334Z,9.79
2022-10-17T07:36:21.591Z,9.94
2022-10-17T07:38:51.210Z,10.16
2022-10-17T07:41:21.727Z,10.03
2022-10-17T07:43:50.354Z,10.05
2022-10-17T07:46:18.495Z,10.08
2022-10-17T07:48:46.580Z,10.37
2022-10-17T07:51:15.042Z,10.59
2022-10-17T07:53:46.531Z,10.78
2022-10-17T07:56:18.579Z,11.04
2022-10-17T07:58:48.369Z,11.16
2022-10-17T08:01:16.479Z,11.39
2022-10-17T08:03:45.702Z,11.53
2022-10-17T08:06:14.313Z,11.63
2022-10-17T08:08:42.866Z,11.79
2022-10-17T08:11:12.814Z,11.76
2022-10-17T08:13:43.366Z,11.61
2022-10-17T08:16:13.856Z,11.77
2022-10-17T08:18:44.457Z,12.09
2022-10-17T08:21:14.414Z,12.12
2022-10-17T08:23:42.379Z,12.34
2022-10-17T08:26:13.563Z,12.30
2022-10-17T08:28:43.339Z,12.15
2022-10-17T08:31:13.909Z,12.27
2022-10-17T08:33:42.834Z,12.15
2022-10-17T08:36:11.257Z,12.53
2022-10-17T08:38:43.141Z,12.70
2022-10-17T08:41:18.372Z,12.96
2022-10-17T08:44:04.973Z,13.05
2022-10-17T08:46:37.150Z,13.41
2022-10-17T08:49:21.021Z,13.43
2022-10-17T08:51:54.634Z,13.20
2022-10-17T08:54:34.116Z,13.27
2022-10-17T08:57:02.330Z,13.52
2022-10-17T08:59:33.477Z,13.62
2022-10-17T09:02:05.581Z,13.40
2022-10-17T09:04:47.329Z,13.80
2022-10-17T09:07:23.575Z,13.85
2022-10-17T09:10:00.594Z,14.00
2022-10-17T09:12:41.688Z,14.13
2022-10-17T09:15:26.653Z,14.23
2022-10-17T09:17:57.735Z,14.39
2022-10-17T09:20:29.703Z,14.56
2022-10-17T09:23:01.163Z,14.71
2022-10-17T09:25:29.746Z,14.80
2022-10-17T09:28:16.914Z,14.82
2022-10-17T09:30:48.658Z,15.18
2022-10-17T09:33:34.291Z,15.26
2022-10-17T09:36:07.843Z,15.37
2022-10-17T09:38:40.878Z,15.27
2022-10-17T09:44:20.002Z,15.45
2022-10-17T09:47:06.921Z,15.61
2022-10-17T09:49:38.426Z,15.54
2022-10-17T09:52:11.902Z,15.72
2022-10-17T09:54:45.221Z,15.94
2022-10-17T09:57:14.779Z,16.12
2022-10-17T09:59:45.297Z,15.96
2022-10-17T10:02:21.273Z,16.25
2022-10-17T10:05:06.753Z,16.43
2022-10-17T10:07:37.765Z,16.36
2022-10-17T10:10:08.385Z,16.44
2022-10-17T10:12:39.033Z,16.48
2022-10-17T10:15:35.117Z,16.30
2022-10-17T10:18:04.920Z,16.25
2022-10-17T10:20:35.949Z,16.50
2022-10-17T10:23:12.092Z,16.19
2022-10-17T10:25:50.148Z,16.59
2022-10-17T10:28:19.871Z,16.59
2022-10-17T10:30:51.169Z,16.67
2022-10-17T10:33:23.251Z,16.72
2022-10-17T10:35:57.323Z,16.82
2022-10-17T10:38:25.665Z,16.90
2022-10-17T10:40:56.876Z,17.11
2022-10-17T10:43:36.759Z,17.23
2022-10-17T10:46:16.822Z,17.28
2022-10-17T10:48:54.931Z,17.28
2022-10-17T10:51:28.934Z,17.55
2022-10-17T10:54:04.379Z,17.59
2022-10-17T10:56:38.911Z,17.80
2022-10-17T10:59:15.001Z,17.79
2022-10-17T11:01:49.361Z,17.71
2022-10-17T11:04:28.722Z,17.92
2022-10-17T11:07:02.788Z,17.30
2022-10-17T11:09:42.184Z,17.22
2022-10-17T11:12:16.120Z,17.33
2022-10-17T11:14:48.208Z,17.51
2022-10-17T11:17:29.020Z,17.68
2022-10-17T11:20:12.533Z,17.77
2022-10-17T11:22:45.717Z,17.90
2022-10-17T11:25:30.297Z,18.08
2022-10-17T11:28:02.293Z,18.05
2022-10-17T11:30:46.688Z,18.15
2022-10-17T11:33:19.817Z,18.30
2022-10-17T11:35:53.078Z,18.34
2022-10-17T11:38:26.934Z,17.58
2022-10-17T11:40:58.981Z,17.54
2022-10-17T11:43:32.544Z,17.88
2022-10-17T11:46:14.925Z,17.98
2022-10-17T11:48:48.713Z,18.30
2022-10-17T11:54:13.005Z,18.00
2022-10-17T11:56:45.827Z,17.90
2022-10-17T11:59:49.097Z,18.10
2022-10-17T12:02:28.784Z,18.44
2022-10-17T12:05:05.742Z,18.12
2022-10-17T12:10:26.008Z,18.59
2022-10-17T12:12:54.489Z,18.40
2022-10-17T12:15:30.433Z,18.15
2022-10-17T12:18:02.694Z,18.26
2022-10-17T12:20:36.938Z,18.58
2022-10-17T12:23:24.787Z,18.45
2022-10-17T12:25:57.099Z,18.49
2022-10-17T12:28:31.584Z,18.68
2022-10-17T12:31:03.013Z,18.61
2022-10-17T12:33:36.757Z,18.84
2022-10-17T12:36:39.001Z,19.00
2022-10-17T12:39:49.315Z,18.86
2022-10-17T12:42:51.215Z,19.15
2022-10-17T12:45:51.577Z,19.29
2022-10-17T12:49:13.594Z,19.41
2022-10-17T12:52:21.758Z,19.38
2022-10-17T12:55:00.580Z,19.18
2022-10-17T12:57:45.306Z,19.32
2022-10-17T13:00:22.902Z,18.99
2022-10-17T13:02:53.282Z,18.94
2022-10-17T13:05:28.861Z,19.03
2022-10-17T13:08:00.164Z,18.94
2022-10-17T13:10:30.238Z,18.66
2022-10-17T13:13:07.124Z,18.76
2022-10-17T13:15:38.322Z,18.63
2022-10-17T13:18:06.748Z,18.78
2022-10-17T13:20:34.963Z,18.77
2022-10-17T13:23:03.802Z,19.01
2022-10-17T13:25:31.856Z,18.52
2022-10-17T13:28:14.730Z,18.58
2022-10-17T13:30:49.729Z,18.94
2022-10-17T13:33:32.090Z,19.21
2022-10-17T13:36:01.539Z,19.32
2022-10-17T13:38:35.714Z,19.33
2022-10-17T13:44:03.589Z,19.37
2022-10-17T13:46:39.530Z,18.88
2022-10-17T13:49:25.737Z,19.06
2022-10-17T13:51:56.266Z,19.26
2022-10-17T13:54:35.601Z,19.16
2022-10-17T13:57:06.028Z,19.25
2022-10-17T13:59:40.044Z,19.24
2022-10-17T14:02:15.724Z,19.28
2022-10-17T14:05:15.531Z,19.23
2022-10-17T14:08:05.519Z,18.79
2022-10-17T14:10:28.622Z,18.77
2022-10-17T14:12:57.474Z,18.75
2022-10-17T14:15:28.321Z,18.74
2022-10-17T14:18:04.234Z,18.77
2022-10-17T14:23:37.201Z,18.84
2022-10-17T14:26:12.047Z,18.64
2022-10-17T14:28:40.779Z,18.47
2022-10-17T14:31:33.594Z,18.57
2022-10-17T14:34:05.738Z,18.55
2022-10-17T14:36:38.696Z,18.43
2022-10-17T14:39:14.148Z,18.44
2022-10-17T14:41:45.592Z,18.41
2022-10-17T14:44:23.608Z,18.44
2022-10-17T14:46:55.555Z,18.42
2022-10-17T14:49:32.606Z,18.30
2022-10-17T14:52:27.439Z,18.35
2022-10-17T14:54:55.876Z,18.25
2022-10-17T14:57:27.660Z,18.23
2022-10-17T14:59:57.410Z,18.20
2022-10-17T15:02:26.659Z,18.00
2022-10-17T15:04:56.486Z,18.09
2022-10-17T15:07:24.821Z,17.99
2022-10-17T15:09:54.624Z,17.82
2022-10-17T15:12:25.206Z,17.82
2022-10-17T15:14:54.749Z,17.82
2022-10-17T15:17:26.069Z,17.73
2022-10-17T15:19:54.374Z,17.80
2022-10-17T15:22:24.075Z,17.71
2022-10-17T15:24:52.077Z,17.68
2022-10-17T15:27:21.996Z,17.63
2022-10-17T15:29:50.766Z,17.56
2022-10-17T15:32:18.816Z,17.48
2022-10-17T15:34:46.957Z,17.43
2022-10-17T15:37:20.973Z,17.37
2022-10-17T15:39:53.659Z,17.35
2022-10-17T15:42:23.194Z,17.25
2022-10-17T15:44:51.509Z,17.15
2022-10-17T15:47:28.373Z,17.12
2022-10-17T15:49:57.036Z,17.11
2022-10-17T15:52:25.489Z,16.97
2022-10-17T15:54:57.315Z,16.95
2022-10-17T15:57:30.033Z,16.90
2022-10-17T16:00:00.264Z,16.86
2022-10-17T16:02:28.838Z,16.72
2022-10-17T16:04:56.816Z,16.76
2022-10-17T16:07:24.813Z,16.75
2022-10-17T16:09:54.378Z,16.73
2022-10-17T16:12:29.014Z,16.65
2022-10-17T16:14:57.382Z,16.62
2022-10-17T16:17:25.517Z,16.56
2022-10-17T16:19:53.517Z,16.53
2022-10-17T16:22:28.962Z,16.47
2022-10-17T16:25:07.517Z,16.35
2022-10-17T16:27:36.591Z,16.39
2022-10-17T16:30:06.278Z,16.35
2022-10-17T16:32:34.979Z,16.32
2022-10-17T16:35:03.271Z,16.28
2022-10-17T16:37:31.412Z,16.24
2022-10-17T16:40:00.872Z,16.08
2022-10-17T16:42:29.308Z,16.07
2022-10-17T16:44:57.838Z,16.02
2022-10-17T16:47:25.890Z,15.93
2022-10-17T16:49:54.026Z,15.78
2022-10-17T16:52:22.316Z,15.58
2022-10-17T16:54:51.018Z,15.70
2022-10-17T16:57:20.502Z,15.64
2022-10-17T16:59:48.656Z,15.51
2022-10-17T17:02:21.187Z,15.31
2022-10-17T17:04:49.757Z,15.23
2022-10-17T17:07:18.900Z,15.22
2022-10-17T17:09:47.973Z,15.19
2022-10-17T17:12:16.384Z,15.21
2022-10-17T17:14:46.328Z,15.20
2022-10-17T17:17:24.408Z,15.13
2022-10-17T17:20:02.446Z,15.08
2022-10-17T17:22:30.594Z,15.03
2022-10-17T17:24:58.695Z,15.02
2022-10-17T17:27:29.755Z,14.90
2022-10-17T17:29:59.375Z,14.95
2022-10-17T17:32:27.571Z,14.89
2022-10-17T17:34:55.541Z,14.49
2022-10-17T17:37:23.617Z,14.36
2022-10-17T17:39:51.677Z,14.42
2022-10-17T17:42:20.544Z,14.42
2022-10-17T17:44:49.636Z,14.51
2022-10-17T17:47:19.341Z,14.45
2022-10-17T17:49:47.416Z,14.44
2022-10-17T17:52:15.492Z,14.35
2022-10-17T17:54:43.467Z,14.27
2022-10-17T17:57:12.974Z,14.27
2022-10-17T17:59:41.806Z,14.32
2022-10-17T18:02:11.087Z,14.20
2022-10-17T18:04:40.597Z,14.23
2022-10-17T18:07:08.609Z,14.16
2022-10-17T18:09:36.832Z,13.96
2022-10-17T18:12:05.595Z,13.97
2022-10-17T18:14:33.630Z,14.00
2022-10-17T18:17:01.743Z,13.50
2022-10-17T18:19:29.956Z,12.90
2022-10-17T18:21:59.946Z,12.62
2022-10-17T18:24:27.876Z,12.50
2022-10-17T18:27:00.035Z,12.57
2022-10-17T18:29:29.474Z,12.51
2022-10-17T18:31:57.565Z,12.49
2022-10-17T18:34:25.794Z,12.41
2022-10-17T18:36:54.353Z,12.69
2022-10-17T18:39:24.187Z,12.80
2022-10-17T18:41:52.847Z,12.88
2022-10-17T18:44:21.161Z,12.95
2022-10-17T18:46:50.009Z,13.13
2022-10-17T18:49:19.988Z,12.86
2022-10-17T18:51:48.721Z,12.76
2022-10-17T18:54:20.549Z,12.41
2022-10-17T18:56:51.067Z,12.46
2022-10-17T18:59:19.476Z,12.58
2022-10-17T19:01:48.299Z,12.56
2022-10-17T19:04:17.056Z,12.77
2022-10-17T19:06:45.841Z,12.79
2022-10-17T19:09:16.343Z,12.43
2022-10-17T19:11:45.029Z,12.36
2022-10-17T19:14:15.059Z,12.36
2022-10-17T19:16:45.054Z,12.33
2022-10-17T19:19:14.956Z,12.39
2022-10-17T19:21:43.856Z,12.42
2022-10-17T19:24:15.943Z,12.09
2022-10-17T19:26:45.547Z,11.85
2022-10-17T19:29:17.015Z,12.02
2022-10-17T19:31:45.895Z,12.19
2022-10-17T19:34:15.647Z,12.22
2022-10-17T19:36:44.085Z,12.06
2022-10-17T19:39:14.275Z,11.78
2022-10-17T19:41:43.021Z,11.57
2022-10-17T19:44:11.594Z,11.59
2022-10-17T19:46:41.598Z,11.70
2022-10-17T19:49:09.700Z,11.46
2022-10-17T19:51:39.647Z,11.09
2022-10-17T19:54:08.115Z,11.53
2022-10-17T19:56:38.359Z,11.56
2022-10-17T19:59:07.180Z,11.63
2022-10-17T20:01:38.745Z,11.59
2022-10-17T20:04:10.755Z,11.70
2022-10-17T20:06:39.647Z,11.34
2022-10-17T20:09:10.983Z,11.22
2022-10-17T20:11:42.416Z,10.55
2022-10-17T20:14:10.300Z,10.46
2022-10-17T20:16:38.383Z,10.72
2022-10-17T20:19:09.760Z,10.51
2022-10-17T20:21:39.702Z,10.49
2022-10-17T20:24:10.249Z,10.59
2022-10-17T20:26:39.651Z,10.03
2022-10-17T20:29:12.488Z,9.98
2022-10-17T20:31:42.751Z,9.96
2022-10-17T20:34:14.843Z,10.14
2022-10-17T20:36:43.554Z,10.29
2022-10-17T20:39:13.578Z,10.54
2022-10-17T20:41:41.864Z,10.18
2022-10-17T20:44:10.390Z,10.30
2022-10-17T20:46:44.772Z,10.02
2022-10-17T20:49:22.765Z,9.83
2022-10-17T20:51:50.784Z,9.93
2022-10-17T20:54:18.837Z,9.87
2022-10-17T20:56:46.922Z,9.58
2022-10-17T20:59:17.161Z,9.49
2022-10-17T21:01:46.314Z,9.38
2022-10-17T21:04:44.200Z,9.34
2022-10-17T21:07:05.553Z,9.26
2022-10-17T21:09:33.748Z,9.16
2022-10-17T21:12:03.691Z,9.36
2022-10-17T21:14:31.952Z,9.19
2022-10-17T21:17:04.708Z,8.95
2022-10-17T21:19:33.371Z,9.15
2022-10-17T21:22:01.522Z,9.38
2022-10-17T21:24:31.694Z,9.36
2022-10-17T21:26:59.778Z,9.02
2022-10-17T21:29:28.199Z,9.09
2022-10-17T21:31:56.138Z,8.98
2022-10-17T21:34:25.560Z,9.34
2022-10-17T21:36:53.921Z,9.06
2022-10-17T21:39:24.207Z,9.23
2022-10-17T21:41:54.233Z,8.99
2022-10-17T21:44:24.308Z,9.05
2022-10-17T21:46:53.131Z,9.19
2022-10-17T21:49:22.551Z,9.24
2022-10-17T21:51:51.970Z,9.14
2022-10-17T21:54:21.505Z,9.08
2022-10-17T21:56:49.900Z,8.90
2022-10-17T21:59:19.592Z,9.15
2022-10-17T22:01:47.776Z,9.15
2022-10-17T22:04:18.766Z,9.21
2022-10-17T22:06:51.191Z,9.22
2022-10-17T22:09:23.465Z,9.11
2022-10-17T22:11:53.056Z,9.11
2022-10-17T22:14:24.320Z,9.03
2022-10-17T22:16:52.636Z,9.16
2022-10-17T22:19:22.772Z,9.10
2022-10-17T22:21:51.426Z,9.10
2022-10-17T22:26:49.935Z,8.86
2022-10-17T22:29:18.707Z,8.82
2022-10-17T22:31:48.414Z,8.71
2022-10-17T22:34:17.991Z,8.66
2022-10-17T22:36:47.788Z,8.42
2022-10-17T22:39:16.178Z,8.67
2022-10-17T22:41:44.192Z,8.60
2022-10-17T22:44:12.197Z,8.17
2022-10-17T22:46:40.277Z,8.24
2022-10-17T22:49:09.693Z,8.60
2022-10-17T22:51:37.717Z,8.67
2022-10-17T22:54:05.827Z,8.66
2022-10-17T22:56:33.969Z,8.66
2022-10-17T22:59:02.040Z,8.59
2022-10-17T23:01:30.132Z,8.52
2022-10-17T23:03:58.110Z,8.46
2022-10-17T23:06:27.483Z,8.39
2022-10-17T23:08:55.619Z,8.60
2022-10-17T23:11:23.683Z,8.57
2022-10-17T23:13:52.013Z,8.20
2022-10-17T23:16:19.990Z,8.36
2022-10-17T23:18:48.009Z,8.31
2022-10-17T23:21:15.980Z,6.80
2022-10-17T23:23:45.514Z,8.02
2022-10-17T23:26:14.922Z,8.16
2022-10-17T23:28:44.170Z,8.25
2022-10-17T23:31:14.286Z,8.29
2022-10-17T23:33:42.750Z,8.30
2022-10-17T23:36:11.641Z,8.16
2022-10-17T23:38:39.823Z,8.02
2022-10-17T23:41:09.635Z,7.95
2022-10-17T23:43:38.298Z,7.91
2022-10-17T23:46:07.582Z,7.97
2022-10-17T23:48:35.506Z,7.82
2022-10-17T23:51:03.496Z,7.79
2022-10-17T23:53:31.626Z,7.91
2022-10-17T23:55:59.615Z,7.81
2022-10-17T23:58:29.070Z,7.70
